createdAt,value
2018-07-13T00:02:19.111Z,98453.47
2018-07-13T00:04:47.566Z,98450.41
2018-07-13T00:07:16.050Z,98449.27
2018-07-13T00:09:44.508Z,98444.44
2018-07-13T00:12:13.007Z,98444.83
2018-07-13T00:14:46.015Z,98440.67
2018-07-13T00:17:14.496Z,98439.39
2018-07-13T00:19:42.939Z,98445.28
2018-07-13T00:22:11.778Z,98442.80
2018-07-13T00:24:40.251Z,98446.52
2018-07-13T00:27:08.699Z,98447.09
2018-07-13T00:29:37.158Z,98445.58
2018-07-13T00:32:05.604Z,98447.53
2018-07-13T00:34:34.345Z,98450.72
2018-07-13T00:37:02.781Z,98448.70
2018-07-13T00:39:31.252Z,98459.30
2018-07-13T00:41:59.723Z,98461.83
2018-07-13T00:44:28.156Z,98460.72
2018-07-13T00:46:56.610Z,98458.81
2018-07-13T00:49:25.036Z,98461.91
2018-07-13T00:51:53.827Z,98461.22
2018-07-13T00:54:22.307Z,98464.81
2018-07-13T00:56:50.716Z,98462.08
2018-07-13T00:59:19.223Z,98460.24
2018-07-13T01:01:47.843Z,98457.80
2018-07-13T01:04:16.285Z,98465.23
2018-07-13T01:06:44.720Z,98465.77
2018-07-13T01:09:13.130Z,98465.23
2018-07-13T01:11:41.915Z,98463.31
2018-07-13T01:14:10.368Z,98472.06
2018-07-13T01:16:38.764Z,98467.70
2018-07-13T01:19:07.200Z,98473.77
2018-07-13T01:21:35.593Z,98460.67
2018-07-13T01:24:04.104Z,98462.77
2018-07-13T01:26:32.567Z,98467.45
2018-07-13T01:29:01.061Z,98459.14
2018-07-13T01:31:29.533Z,98467.45
2018-07-13T01:33:57.967Z,98471.54
2018-07-13T01:36:26.431Z,98476.89
2018-07-13T01:38:54.925Z,98477.84
2018-07-13T01:41:23.460Z,98480.48
2018-07-13T01:43:52.350Z,98474.20
2018-07-13T01:46:20.781Z,98473.25
2018-07-13T01:48:49.245Z,98475.50
2018-07-13T01:51:17.678Z,98472.48
2018-07-13T01:53:46.142Z,98469.02
2018-07-13T01:56:14.604Z,98468.05
2018-07-13T01:58:43.076Z,98474.05
2018-07-13T02:01:11.544Z,98467.02
2018-07-13T02:03:39.978Z,98465.07
2018-07-13T02:06:08.464Z,98467.46
2018-07-13T02:08:36.928Z,98461.82
2018-07-13T02:11:05.470Z,98464.47
2018-07-13T02:13:33.925Z,98464.58
2018-07-13T02:16:02.374Z,98464.88
2018-07-13T02:18:30.817Z,98466.91
2018-07-13T02:20:59.288Z,98466.17
2018-07-13T02:23:27.879Z,98461.13
2018-07-13T02:25:56.364Z,98462.70
2018-07-13T02:28:25.075Z,98468.84
2018-07-13T02:30:53.588Z,98469.55
2018-07-13T02:33:22.022Z,98471.38
2018-07-13T02:35:50.726Z,98476.91
2018-07-13T02:38:19.164Z,98468.47
2018-07-13T02:40:47.588Z,98473.27
2018-07-13T02:43:16.048Z,98473.52
2018-07-13T02:45:44.782Z,98474.59
2018-07-13T02:48:13.273Z,98477.36
2018-07-13T02:50:41.696Z,98477.59
2018-07-13T02:53:10.182Z,98478.67
2018-07-13T02:55:38.639Z,98479.85
2018-07-13T02:58:07.071Z,98478.75
2018-07-13T03:00:35.541Z,98479.53
2018-07-13T03:03:04.057Z,98479.93
2018-07-13T03:05:32.559Z,98475.78
2018-07-13T03:08:01.031Z,98478.46
2018-07-13T03:10:29.752Z,98478.75
2018-07-13T03:12:58.163Z,98488.77
2018-07-13T03:15:26.642Z,98490.72
2018-07-13T03:17:55.087Z,98489.07
2018-07-13T03:20:23.868Z,98487.33
2018-07-13T03:22:52.389Z,98481.20
2018-07-13T03:25:20.808Z,98485.82
2018-07-13T03:27:49.231Z,98493.00
2018-07-13T03:30:32.695Z,98485.66
2018-07-13T03:33:01.146Z,98490.81
2018-07-13T03:35:29.624Z,98507.41
2018-07-13T03:37:58.078Z,98509.97
2018-07-13T03:40:26.535Z,98506.61
2018-07-13T03:42:54.987Z,98505.16
2018-07-13T03:45:23.475Z,98508.70
2018-07-13T03:47:51.978Z,98508.69
2018-07-13T03:50:20.476Z,98505.34
2018-07-13T03:52:48.918Z,98511.55
2018-07-13T03:55:17.403Z,98516.36
2018-07-13T03:57:45.838Z,98521.69
2018-07-13T04:00:14.281Z,98521.45
2018-07-13T04:02:42.727Z,98530.33
2018-07-13T04:05:11.263Z,98526.02
2018-07-13T04:07:39.684Z,98527.44
2018-07-13T04:10:08.207Z,98519.92
2018-07-13T04:12:36.705Z,98522.90
2018-07-13T04:15:05.426Z,98525.20
2018-07-13T04:17:34.415Z,98514.89
2018-07-13T04:20:02.928Z,98516.44
2018-07-13T04:22:31.485Z,98512.97
2018-07-13T04:24:59.951Z,98513.88
2018-07-13T04:27:28.776Z,98511.95
2018-07-13T04:29:57.536Z,98513.36
2018-07-13T04:32:26.033Z,98518.66
2018-07-13T04:34:54.552Z,98528.83
2018-07-13T04:37:23.004Z,98532.20
2018-07-13T04:39:51.474Z,98529.43
2018-07-13T04:42:20.128Z,98525.72
2018-07-13T04:44:48.561Z,98520.45
2018-07-13T04:47:17.304Z,98521.86
2018-07-13T04:49:45.796Z,98531.38
2018-07-13T04:52:14.325Z,98529.80
2018-07-13T04:54:43.139Z,98520.81
2018-07-13T04:57:11.788Z,98524.27
2018-07-13T04:59:40.676Z,98522.80
2018-07-13T05:02:09.177Z,98522.31
2018-07-13T05:04:37.924Z,98533.26
2018-07-13T05:07:06.456Z,98532.03
2018-07-13T05:09:34.947Z,98532.33
2018-07-13T05:12:03.464Z,98530.52
2018-07-13T05:14:31.908Z,98529.98
2018-07-13T05:17:00.416Z,98528.42
2018-07-13T05:19:28.919Z,98523.27
2018-07-13T05:21:57.444Z,98521.87
2018-07-13T05:24:26.001Z,98519.50
2018-07-13T05:26:54.488Z,98521.00
2018-07-13T05:29:23.022Z,98525.58
2018-07-13T05:31:51.484Z,98526.16
2018-07-13T05:34:20.026Z,98518.81
2018-07-13T05:36:48.535Z,98524.38
2018-07-13T05:39:16.979Z,98513.17
2018-07-13T05:41:45.523Z,98521.45
2018-07-13T05:44:14.294Z,98522.40
2018-07-13T05:46:42.763Z,98525.17
2018-07-13T05:49:11.237Z,98526.41
2018-07-13T05:51:40.196Z,98525.02
2018-07-13T05:54:08.733Z,98526.05
2018-07-13T05:56:37.195Z,98531.67
2018-07-13T05:59:05.712Z,98533.64
2018-07-13T06:01:34.168Z,98530.83
2018-07-13T06:04:02.680Z,98534.89
2018-07-13T06:06:31.199Z,98538.88
2018-07-13T06:08:59.655Z,98546.40
2018-07-13T06:11:28.227Z,98543.84
2018-07-13T06:13:56.638Z,98539.27
2018-07-13T06:16:25.371Z,98538.20
2018-07-13T06:18:54.580Z,98537.49
2018-07-13T06:21:22.979Z,98547.09
2018-07-13T06:23:51.451Z,98553.39
2018-07-13T06:26:19.867Z,98552.97
2018-07-13T06:28:48.276Z,98561.36
2018-07-13T06:31:16.807Z,98555.70
2018-07-13T06:36:28.228Z,98558.80
2018-07-13T06:38:56.681Z,98561.58
2018-07-13T06:41:25.165Z,98565.16
2018-07-13T06:43:53.883Z,98561.94
2018-07-13T06:46:22.307Z,98564.77
2018-07-13T06:48:50.802Z,98571.38
2018-07-13T06:51:19.260Z,98573.46
2018-07-13T06:53:47.728Z,98572.20
2018-07-13T06:56:16.400Z,98567.91
2018-07-13T06:58:55.939Z,98562.78
2018-07-13T07:01:24.390Z,98561.61
2018-07-13T07:04:31.587Z,98567.37
2018-07-13T07:07:05.815Z,98571.46
2018-07-13T07:09:34.290Z,98567.80
2018-07-13T07:13:10.037Z,98565.95
2018-07-13T07:15:38.624Z,98569.65
2018-07-13T07:18:07.586Z,98563.52
2018-07-13T07:20:36.039Z,98568.53
2018-07-13T07:23:04.481Z,98570.23
2018-07-13T07:25:32.979Z,98566.89
2018-07-13T07:28:01.431Z,98574.54
2018-07-13T07:30:29.990Z,98570.73
2018-07-13T07:32:58.390Z,98571.99
2018-07-13T07:35:26.816Z,98574.48
2018-07-13T07:37:55.286Z,98574.55
2018-07-13T07:40:23.766Z,98579.62
2018-07-13T07:42:52.284Z,98572.66
2018-07-13T07:45:20.779Z,98566.69
2018-07-13T07:47:49.361Z,98569.14
2018-07-13T07:50:17.789Z,98571.95
2018-07-13T07:52:46.359Z,98574.03
2018-07-13T07:55:14.824Z,98571.46
2018-07-13T07:57:43.731Z,98570.69
2018-07-13T08:00:12.345Z,98569.28
2018-07-13T08:02:40.951Z,98570.73
2018-07-13T08:05:09.445Z,98563.42
2018-07-13T08:07:37.918Z,98565.59
2018-07-13T08:10:06.607Z,98558.71
2018-07-13T08:12:35.147Z,98559.23
2018-07-13T08:15:06.612Z,98558.19
2018-07-13T08:17:35.099Z,98566.23
2018-07-13T08:20:04.513Z,98565.24
2018-07-13T08:22:38.051Z,98565.39
2018-07-13T08:25:08.172Z,98564.39
2018-07-13T08:27:43.616Z,98562.89
2018-07-13T08:30:20.163Z,98556.17
2018-07-13T08:32:48.586Z,98558.83
2018-07-13T08:35:17.512Z,98556.60
2018-07-13T08:37:46.475Z,98558.55
2018-07-13T08:40:14.887Z,98557.77
2018-07-13T08:42:43.564Z,98556.90
2018-07-13T08:45:12.452Z,98559.77
2018-07-13T08:47:40.967Z,98546.27
2018-07-13T08:50:09.457Z,98547.76
2018-07-13T08:52:37.987Z,98552.31
2018-07-13T08:55:08.278Z,98542.91
2018-07-13T08:57:36.764Z,98552.80
2018-07-13T09:00:06.052Z,98550.04
2018-07-13T09:02:34.520Z,98562.20
2018-07-13T09:05:02.994Z,98552.61
2018-07-13T09:07:32.743Z,98551.02
2018-07-13T09:10:01.284Z,98550.11
2018-07-13T09:12:30.147Z,98549.11
2018-07-13T09:14:58.635Z,98549.33
2018-07-13T09:17:27.078Z,98554.47
2018-07-13T09:19:55.555Z,98545.73
2018-07-13T09:22:23.976Z,98547.98
2018-07-13T09:24:52.471Z,98551.02
2018-07-13T09:27:20.891Z,98538.70
2018-07-13T09:29:49.382Z,98536.97
2018-07-13T09:33:20.620Z,98538.34
2018-07-13T09:35:49.103Z,98527.84
2018-07-13T09:38:17.809Z,98536.00
2018-07-13T09:40:46.304Z,98532.54
2018-07-13T09:43:14.731Z,98530.94
2018-07-13T09:45:43.198Z,98540.03
2018-07-13T09:48:11.637Z,98538.41
2018-07-13T09:50:40.069Z,98529.87
2018-07-13T09:53:08.595Z,98525.05
2018-07-13T09:55:37.083Z,98525.86
2018-07-13T09:58:05.696Z,98521.95
2018-07-13T10:00:39.394Z,98523.28
2018-07-13T10:03:07.862Z,98512.15
2018-07-13T10:05:36.384Z,98536.72
2018-07-13T10:08:04.852Z,98518.79
2018-07-13T10:10:33.327Z,98519.59
2018-07-13T10:13:01.827Z,98503.81
2018-07-13T10:15:30.288Z,98514.34
2018-07-13T10:17:58.788Z,98509.63
2018-07-13T10:20:27.856Z,98507.95
2018-07-13T10:22:56.344Z,98499.78
2018-07-13T10:25:28.650Z,98502.72
2018-07-13T10:27:57.514Z,98520.70
2018-07-13T10:33:57.271Z,98501.04
2018-07-13T10:36:25.790Z,98486.36
2018-07-13T10:38:54.260Z,98490.31
2018-07-13T10:41:23.588Z,98504.58
2018-07-13T10:43:52.114Z,98483.04
2018-07-13T10:46:20.655Z,98475.20
2018-07-13T10:48:49.074Z,98493.23
2018-07-13T10:51:17.600Z,98483.11
2018-07-13T10:53:46.665Z,98491.97
2018-07-13T10:56:15.263Z,98485.91
2018-07-13T10:59:46.403Z,98494.57
2018-07-13T11:02:14.839Z,98489.09
2018-07-13T11:04:43.296Z,98486.55
2018-07-13T11:07:11.804Z,98486.50
2018-07-13T11:09:40.255Z,98470.65
2018-07-13T11:12:08.972Z,98475.95
2018-07-13T11:14:37.710Z,98468.56
2018-07-13T11:17:06.406Z,98481.05
2018-07-13T11:19:34.850Z,98472.25
2018-07-13T11:22:03.289Z,98474.59
2018-07-13T11:24:31.762Z,98464.88
2018-07-13T11:27:00.186Z,98479.41
2018-07-13T11:29:28.779Z,98459.38
2018-07-13T11:31:57.363Z,98455.43
2018-07-13T11:34:25.815Z,98456.11
2018-07-13T11:36:54.350Z,98469.77
2018-07-13T11:39:22.728Z,98459.47
2018-07-13T11:41:51.268Z,98461.70
2018-07-13T11:44:19.733Z,98463.20
2018-07-13T11:46:48.144Z,98459.75
2018-07-13T11:49:16.596Z,98449.66
2018-07-13T11:51:45.032Z,98442.34
2018-07-13T11:54:13.902Z,98451.10
2018-07-13T11:56:42.326Z,98445.91
2018-07-13T11:59:11.304Z,98437.70
2018-07-13T12:01:39.761Z,98439.58
2018-07-13T12:04:08.192Z,98440.16
2018-07-13T12:06:36.647Z,98445.78
2018-07-13T12:09:06.212Z,98442.35
2018-07-13T12:11:35.373Z,98438.35
2018-07-13T12:14:03.838Z,98430.94
2018-07-13T12:16:32.296Z,98432.52
2018-07-13T12:19:00.728Z,98426.91
2018-07-13T12:21:29.170Z,98441.48
2018-07-13T12:23:58.000Z,98438.33
2018-07-13T12:26:26.351Z,98442.09
2018-07-13T12:28:54.813Z,98434.65
2018-07-13T12:31:23.298Z,98422.95
2018-07-13T12:33:51.726Z,98427.00
2018-07-13T12:36:20.171Z,98435.98
2018-07-13T12:38:48.591Z,98432.67
2018-07-13T12:44:00.041Z,98427.68
2018-07-13T12:46:28.636Z,98419.06
2018-07-13T12:48:57.113Z,98431.86
2018-07-13T12:51:25.518Z,98425.80
2018-07-13T12:53:54.275Z,98425.70
2018-07-13T12:56:22.681Z,98425.23
2018-07-13T12:58:51.147Z,98427.61
2018-07-13T13:01:19.526Z,98439.09
2018-07-13T13:03:47.952Z,98443.50
2018-07-13T13:06:16.488Z,98446.59
2018-07-13T13:08:44.912Z,98447.20
2018-07-13T13:11:13.374Z,98469.02
2018-07-13T13:13:42.627Z,98463.97
2018-07-13T13:16:11.080Z,98475.27
2018-07-13T13:18:42.625Z,98474.49
2018-07-13T13:21:11.024Z,98469.06
2018-07-13T13:23:39.500Z,98476.48
2018-07-13T13:26:07.934Z,98473.42
2018-07-13T13:28:36.363Z,98466.78
2018-07-13T13:31:04.803Z,98467.27
2018-07-13T13:33:33.214Z,98471.98
2018-07-13T13:36:01.672Z,98472.16
2018-07-13T13:38:30.089Z,98467.77
2018-07-13T13:40:58.564Z,98467.39
2018-07-13T13:43:27.122Z,98471.81
2018-07-13T13:45:55.830Z,98466.08
2018-07-13T13:48:24.240Z,98469.24
2018-07-13T13:50:52.690Z,98464.56
2018-07-13T13:53:21.134Z,98464.80
2018-07-13T13:55:49.583Z,98462.33
2018-07-13T13:58:18.011Z,98371.52
2018-07-13T14:00:46.441Z,98454.09
2018-07-13T14:03:15.115Z,98451.16
2018-07-13T14:05:44.035Z,98448.08
2018-07-13T14:08:12.788Z,98448.73
2018-07-13T14:10:41.195Z,98448.83
2018-07-13T14:13:09.658Z,98443.59
2018-07-13T14:15:38.258Z,98448.30
2018-07-13T14:18:06.773Z,98441.75
2018-07-13T14:20:35.248Z,98449.96
2018-07-13T14:23:03.745Z,98437.42
2018-07-13T14:25:32.411Z,98444.48
2018-07-13T14:28:01.014Z,98439.17
2018-07-13T14:30:29.430Z,98431.56
2018-07-13T14:32:57.848Z,98433.76
2018-07-13T14:35:26.577Z,98439.14
2018-07-13T14:37:55.027Z,98438.55
2018-07-13T14:40:23.475Z,98440.00
2018-07-13T14:42:51.936Z,98439.22
2018-07-13T14:45:20.422Z,98439.30
2018-07-13T14:47:49.058Z,98438.17
2018-07-13T14:50:17.500Z,98434.39
2018-07-13T14:52:45.934Z,98431.88
2018-07-13T14:55:14.468Z,98427.72
2018-07-13T14:57:43.160Z,98433.37
2018-07-13T15:00:11.870Z,98427.23
2018-07-13T15:02:40.551Z,98424.41
2018-07-13T15:05:09.081Z,98428.57
2018-07-13T15:07:37.495Z,98430.16
2018-07-13T15:10:05.991Z,98422.91
2018-07-13T15:12:34.808Z,98414.89
2018-07-13T15:15:03.404Z,98417.64
2018-07-13T15:17:32.170Z,98413.70
2018-07-13T15:20:00.782Z,98416.91
2018-07-13T15:22:29.262Z,98414.28
2018-07-13T15:24:58.588Z,98414.47
2018-07-13T15:27:27.083Z,98406.92
2018-07-13T15:29:55.579Z,98406.73
2018-07-13T15:32:24.204Z,98412.25
2018-07-13T15:34:52.673Z,98402.03
2018-07-13T15:37:21.127Z,98394.98
2018-07-13T15:39:49.781Z,98393.02
2018-07-13T15:42:18.230Z,98400.61
2018-07-13T15:44:46.665Z,98392.52
2018-07-13T15:47:15.115Z,98396.10
2018-07-13T15:49:43.544Z,98391.95
2018-07-13T15:52:12.912Z,98392.47
2018-07-13T15:54:41.459Z,98393.55
2018-07-13T15:57:10.156Z,98397.69
2018-07-13T15:59:38.655Z,98395.94
2018-07-13T16:02:07.108Z,98389.84
2018-07-13T16:04:35.914Z,98386.63
2018-07-13T16:07:04.385Z,98388.35
2018-07-13T16:09:33.013Z,98386.23
2018-07-13T16:12:02.392Z,98381.38
2018-07-13T16:14:30.848Z,98379.56
2018-07-13T16:16:59.392Z,98380.69
2018-07-13T16:19:27.839Z,98375.11
2018-07-13T16:21:56.280Z,98372.56
2018-07-13T16:24:24.863Z,98380.06
2018-07-13T16:26:53.276Z,98374.54
2018-07-13T16:29:21.706Z,98375.88
2018-07-13T16:31:50.298Z,98380.20
2018-07-13T16:34:18.755Z,98371.51
2018-07-13T16:36:47.229Z,98374.24
2018-07-13T16:39:15.665Z,98368.84
2018-07-13T16:41:44.154Z,98370.16
2018-07-13T16:44:12.614Z,98371.02
2018-07-13T16:46:41.076Z,98361.88
2018-07-13T16:49:09.520Z,98367.84
2018-07-13T16:51:38.248Z,98356.05
2018-07-13T16:54:06.723Z,98368.33
2018-07-13T16:56:35.145Z,98367.83
2018-07-13T16:59:03.554Z,98464.13
2018-07-13T17:01:32.011Z,98375.36
2018-07-13T17:04:00.419Z,98448.16
2018-07-13T17:06:28.871Z,98378.52
2018-07-13T17:08:57.508Z,98389.22
2018-07-13T17:11:25.935Z,98380.65
2018-07-13T17:13:54.365Z,98359.45
2018-07-13T17:16:22.792Z,98369.34
2018-07-13T17:18:51.400Z,98364.27
2018-07-13T17:21:19.831Z,98359.92
2018-07-13T17:23:48.472Z,98358.91
2018-07-13T17:26:16.946Z,98358.47
2018-07-13T17:28:45.375Z,98351.08
2018-07-13T17:31:13.914Z,98348.98
2018-07-13T17:33:42.332Z,98350.69
2018-07-13T17:36:10.790Z,98357.55
2018-07-13T17:38:39.347Z,98357.32
2018-07-13T17:41:07.997Z,98353.58
2018-07-13T17:43:36.721Z,98358.56
2018-07-13T17:46:05.443Z,98352.09
2018-07-13T17:48:33.878Z,98352.44
2018-07-13T17:51:02.307Z,98355.88
2018-07-13T17:53:30.730Z,98349.48
2018-07-13T17:55:59.197Z,98355.25
2018-07-13T17:58:27.971Z,98354.11
2018-07-13T18:00:56.738Z,98356.73
2018-07-13T18:03:25.102Z,98354.83
2018-07-13T18:05:53.712Z,98359.08
2018-07-13T18:08:22.407Z,98356.03
2018-07-13T18:10:50.907Z,98353.83
2018-07-13T18:13:19.335Z,98357.91
2018-07-13T18:15:47.836Z,98359.12
2018-07-13T18:18:16.287Z,98362.73
2018-07-13T18:20:44.719Z,98367.30
2018-07-13T18:23:13.168Z,98362.13
2018-07-13T18:25:41.596Z,98366.14
2018-07-13T18:28:10.076Z,98366.80
2018-07-13T18:30:38.468Z,98366.11
2018-07-13T18:33:06.893Z,98369.02
2018-07-13T18:35:35.320Z,98377.58
2018-07-13T18:38:03.799Z,98373.99
2018-07-13T18:40:32.320Z,98366.02
2018-07-13T18:43:00.753Z,98380.30
2018-07-13T18:45:29.200Z,98376.37
2018-07-13T18:47:57.699Z,98382.45
2018-07-13T18:50:26.124Z,98382.55
2018-07-13T18:52:54.820Z,98380.33
2018-07-13T18:55:23.934Z,98381.49
2018-07-13T18:57:52.393Z,98382.59
2018-07-13T19:00:20.807Z,98388.06
2018-07-13T19:02:49.258Z,98391.03
2018-07-13T19:05:17.696Z,98383.86
2018-07-13T19:07:46.084Z,98399.59
2018-07-13T19:10:14.488Z,98407.05
2018-07-13T19:12:42.958Z,98404.12
2018-07-13T19:15:11.404Z,98407.86
2018-07-13T19:17:39.851Z,98418.02
2018-07-13T19:20:08.468Z,98414.63
2018-07-13T19:22:36.923Z,98419.39
2018-07-13T19:25:05.625Z,98427.92
2018-07-13T19:27:34.055Z,98428.02
2018-07-13T19:30:02.493Z,98445.27
2018-07-13T19:32:30.939Z,98440.16
2018-07-13T19:34:59.619Z,98432.68
2018-07-13T19:37:28.125Z,98444.68
2018-07-13T19:39:56.569Z,98446.37
2018-07-13T19:42:25.091Z,98451.58
2018-07-13T19:44:53.508Z,98451.38
2018-07-13T19:47:22.287Z,98450.71
2018-07-13T19:49:50.967Z,98453.05
2018-07-13T19:52:19.397Z,98450.67
2018-07-13T19:54:47.887Z,98450.44
2018-07-13T19:57:16.455Z,98457.63
2018-07-13T19:59:45.647Z,98462.36
2018-07-13T20:02:14.391Z,98458.53
2018-07-13T20:04:43.037Z,98457.84
2018-07-13T20:07:11.544Z,98458.00
2018-07-13T20:09:39.952Z,98458.66
2018-07-13T20:12:08.451Z,98457.56
2018-07-13T20:14:36.939Z,98460.26
2018-07-13T20:17:05.952Z,98455.05
2018-07-13T20:19:34.623Z,98460.55
2018-07-13T20:22:03.090Z,98456.89
2018-07-13T20:24:31.516Z,98463.25
2018-07-13T20:26:59.923Z,98468.73
2018-07-13T20:29:28.324Z,98467.89
2018-07-13T20:31:56.811Z,98477.34
2018-07-13T20:34:25.212Z,98479.66
2018-07-13T20:36:53.676Z,98479.31
2018-07-13T20:39:22.183Z,98479.14
2018-07-13T20:41:50.607Z,98475.28
2018-07-13T20:44:19.357Z,98476.47
2018-07-13T20:46:47.782Z,98477.30
2018-07-13T20:49:16.208Z,98478.82
2018-07-13T20:51:44.671Z,98477.14
2018-07-13T20:54:13.225Z,98480.82
2018-07-13T20:56:41.609Z,98478.47
2018-07-13T20:59:10.031Z,98478.33
2018-07-13T21:01:39.502Z,98477.16
2018-07-13T21:04:08.221Z,98470.48
2018-07-13T21:06:36.700Z,98475.16
2018-07-13T21:09:05.844Z,98474.09
2018-07-13T21:11:34.443Z,98467.56
2018-07-13T21:14:02.919Z,98467.45
2018-07-13T21:16:31.322Z,98464.61
2018-07-13T21:18:59.791Z,98472.61
2018-07-13T21:21:28.252Z,98468.78
2018-07-13T21:23:56.679Z,98471.70
2018-07-13T21:26:25.101Z,98470.86
2018-07-13T21:28:53.527Z,98468.40
2018-07-13T21:31:22.244Z,98467.70
2018-07-13T21:33:50.731Z,98465.97
2018-07-13T21:36:19.228Z,98472.33
2018-07-13T21:38:48.098Z,98468.14
2018-07-13T21:41:16.507Z,98467.58
2018-07-13T21:43:45.243Z,98463.22
2018-07-13T21:46:13.672Z,98466.38
2018-07-13T21:48:42.134Z,98468.86
2018-07-13T21:51:10.555Z,98475.27
2018-07-13T21:53:39.063Z,98474.77
2018-07-13T21:56:07.523Z,98481.07
2018-07-13T21:58:35.904Z,98479.78
2018-07-13T22:01:04.424Z,98482.53
2018-07-13T22:03:32.835Z,98479.32
2018-07-13T22:06:01.323Z,98478.28
2018-07-13T22:08:30.078Z,98476.59
2018-07-13T22:10:58.512Z,98480.76
2018-07-13T22:13:27.017Z,98476.87
2018-07-13T22:15:55.502Z,98483.06
2018-07-13T22:18:24.474Z,98480.16
2018-07-13T22:20:52.931Z,98480.06
2018-07-13T22:23:21.345Z,98486.59
2018-07-13T22:25:50.227Z,98487.86
2018-07-13T22:28:18.635Z,98493.27
2018-07-13T22:30:47.095Z,98493.38
2018-07-13T22:33:15.774Z,98490.88
2018-07-13T22:35:44.195Z,98486.66
2018-07-13T22:38:12.622Z,98489.77
2018-07-13T22:40:41.203Z,98483.05
2018-07-13T22:43:10.088Z,98480.62
2018-07-13T22:45:38.877Z,98478.97
2018-07-13T22:48:07.311Z,98482.78
2018-07-13T22:50:35.799Z,98484.70
2018-07-13T22:53:04.244Z,98488.27
2018-07-13T22:55:32.721Z,98485.63
2018-07-13T22:58:01.444Z,98482.50
2018-07-13T23:00:29.869Z,98483.41
2018-07-13T23:02:58.576Z,98484.25
2018-07-13T23:05:26.991Z,98486.52
2018-07-13T23:07:55.451Z,98482.75
2018-07-13T23:10:23.959Z,98481.94
2018-07-13T23:12:52.364Z,98482.96
2018-07-13T23:15:20.864Z,98489.53
2018-07-13T23:17:49.285Z,98489.40
2018-07-13T23:20:17.760Z,98491.75
2018-07-13T23:22:46.315Z,98485.26
2018-07-13T23:25:14.747Z,98487.81
2018-07-13T23:27:43.215Z,98486.91
2018-07-13T23:30:11.717Z,98484.45
2018-07-13T23:32:40.115Z,98482.73
2018-07-13T23:35:08.926Z,98484.06
2018-07-13T23:37:37.379Z,98484.24
2018-07-13T23:40:05.882Z,98472.34
2018-07-13T23:42:34.451Z,98476.06
2018-07-13T23:45:02.879Z,98475.77
2018-07-13T23:47:31.327Z,98475.20
2018-07-13T23:50:00.751Z,98478.52
2018-07-13T23:52:29.229Z,98483.86
2018-07-13T23:54:57.692Z,98481.33
2018-07-13T23:57:26.212Z,98485.02
2018-07-13T23:59:54.620Z,98486.84
